createdAt,value
2023-05-26T00:01:31.715Z,65.45
2023-05-26T00:03:58.329Z,65.22
2023-05-26T00:06:25.111Z,65.58
2023-05-26T00:08:51.739Z,65.41
2023-05-26T00:11:22.434Z,65.39
2023-05-26T00:13:48.965Z,65.62
2023-05-26T00:16:17.454Z,65.56
2023-05-26T00:18:43.906Z,65.63
2023-05-26T00:21:10.488Z,66.05
2023-05-26T00:23:37.145Z,65.71
2023-05-26T00:26:04.486Z,66.06
2023-05-26T00:28:30.948Z,65.91
2023-05-26T00:30:57.478Z,66.05
2023-05-26T00:33:23.956Z,66.04
2023-05-26T00:35:51.400Z,66.05
2023-05-26T00:38:17.903Z,66.22
2023-05-26T00:40:47.094Z,66.35
2023-05-26T00:43:13.524Z,66.27
2023-05-26T00:45:39.936Z,66.66
2023-05-26T00:48:06.546Z,66.46
2023-05-26T00:50:33.200Z,66.69
2023-05-26T00:53:01.689Z,66.35
2023-05-26T00:55:32.159Z,66.43
2023-05-26T00:57:59.168Z,66.57
2023-05-26T01:00:26.148Z,66.73
2023-05-26T01:02:58.056Z,66.73
2023-05-26T01:05:24.734Z,67.05
2023-05-26T01:07:54.604Z,67.13
2023-05-26T01:10:21.614Z,67.52
2023-05-26T01:12:54.586Z,67.41
2023-05-26T01:15:43.782Z,67.82
2023-05-26T01:18:16.966Z,67.30
2023-05-26T01:21:00.625Z,67.29
2023-05-26T01:23:48.089Z,67.90
2023-05-26T01:26:28.826Z,67.57
2023-05-26T01:29:18.949Z,68.03
2023-05-26T01:31:47.607Z,67.87
2023-05-26T01:34:14.121Z,68.55
2023-05-26T01:36:40.519Z,68.23
2023-05-26T01:39:09.016Z,68.36
2023-05-26T01:42:04.512Z,69.02
2023-05-26T01:44:37.058Z,68.64
2023-05-26T01:47:05.449Z,69.08
2023-05-26T01:49:33.931Z,69.12
2023-05-26T01:52:06.109Z,69.34
2023-05-26T01:54:42.041Z,69.67
2023-05-26T01:57:09.149Z,69.76
2023-05-26T01:59:36.046Z,69.95
2023-05-26T02:02:02.676Z,70.01
2023-05-26T02:04:29.162Z,70.15
2023-05-26T02:06:56.552Z,70.32
2023-05-26T02:09:23.110Z,70.39
2023-05-26T02:11:52.381Z,70.92
2023-05-26T02:14:18.788Z,71.01
2023-05-26T02:16:45.402Z,71.05
2023-05-26T02:19:11.927Z,71.21
2023-05-26T02:21:38.388Z,71.28
2023-05-26T02:24:05.196Z,71.74
2023-05-26T02:26:32.350Z,71.54
2023-05-26T02:28:58.841Z,71.54
2023-05-26T02:31:25.447Z,71.88
2023-05-26T02:33:52.020Z,71.72
2023-05-26T02:36:18.975Z,71.87
2023-05-26T02:38:45.523Z,71.84
2023-05-26T02:41:12.005Z,72.08
2023-05-26T02:43:44.140Z,72.37
2023-05-26T02:46:10.547Z,72.30
2023-05-26T02:48:37.072Z,72.69
2023-05-26T02:51:03.625Z,72.59
2023-05-26T02:53:30.090Z,72.49
2023-05-26T02:55:57.644Z,73.06
2023-05-26T02:58:24.923Z,72.70
2023-05-26T03:00:51.954Z,73.23
2023-05-26T03:03:18.723Z,72.74
2023-05-26T03:05:46.512Z,72.92
2023-05-26T03:08:13.268Z,73.02
2023-05-26T03:10:40.506Z,73.09
2023-05-26T03:13:07.296Z,73.26
2023-05-26T03:15:38.418Z,73.51
2023-05-26T03:18:05.012Z,73.31
2023-05-26T03:20:31.572Z,73.84
2023-05-26T03:22:58.058Z,73.63
2023-05-26T03:25:24.647Z,73.73
2023-05-26T03:27:51.167Z,73.96
2023-05-26T03:30:17.583Z,74.06
2023-05-26T03:32:44.222Z,74.08
2023-05-26T03:35:12.950Z,74.11
2023-05-26T03:37:39.766Z,74.62
2023-05-26T03:40:07.005Z,74.36
2023-05-26T03:42:33.615Z,74.68
2023-05-26T03:45:02.934Z,75.01
2023-05-26T03:47:29.419Z,74.57
2023-05-26T03:49:55.925Z,74.70
2023-05-26T03:52:22.454Z,74.67
2023-05-26T03:54:48.921Z,74.90
2023-05-26T03:57:15.454Z,75.01
2023-05-26T03:59:42.094Z,75.14
2023-05-26T04:02:09.289Z,75.34
2023-05-26T04:04:39.781Z,75.19
2023-05-26T04:07:06.455Z,75.53
2023-05-26T04:09:33.711Z,75.37
2023-05-26T04:12:00.197Z,75.66
2023-05-26T04:14:26.601Z,75.75
2023-05-26T04:16:53.781Z,75.81
2023-05-26T04:19:20.466Z,75.37
2023-05-26T04:21:47.123Z,75.27
2023-05-26T04:24:13.659Z,75.39
2023-05-26T04:26:40.196Z,75.00
2023-05-26T04:29:09.023Z,75.17
2023-05-26T04:31:42.605Z,74.67
2023-05-26T04:34:09.545Z,74.71
2023-05-26T04:36:40.116Z,74.41
2023-05-26T04:39:07.437Z,74.15
2023-05-26T04:41:37.078Z,74.25
2023-05-26T04:44:03.580Z,74.10
2023-05-26T04:46:32.362Z,74.14
2023-05-26T04:48:59.048Z,73.96
2023-05-26T04:51:25.647Z,73.97
2023-05-26T04:53:52.247Z,73.88
2023-05-26T04:56:18.737Z,73.80
2023-05-26T04:58:45.594Z,73.37
2023-05-26T05:01:12.143Z,73.37
2023-05-26T05:03:38.663Z,72.95
2023-05-26T05:06:05.331Z,72.57
2023-05-26T05:08:32.442Z,72.37
2023-05-26T05:10:58.918Z,72.05
2023-05-26T05:13:25.526Z,70.76
2023-05-26T05:15:52.072Z,71.29
2023-05-26T05:18:18.891Z,70.89
2023-05-26T05:20:45.870Z,70.78
2023-05-26T05:23:12.728Z,70.58
2023-05-26T05:25:39.203Z,70.19
2023-05-26T05:28:05.718Z,69.79
2023-05-26T05:30:32.318Z,69.85
2023-05-26T05:32:58.915Z,69.43
2023-05-26T05:35:25.428Z,69.24
2023-05-26T05:37:57.161Z,68.01
2023-05-26T05:40:23.662Z,67.71
2023-05-26T05:42:50.260Z,67.82
2023-05-26T05:45:19.697Z,67.58
2023-05-26T05:47:46.186Z,66.94
2023-05-26T05:50:12.741Z,66.00
2023-05-26T05:52:39.204Z,65.25
2023-05-26T05:55:06.158Z,64.82
2023-05-26T05:57:32.615Z,64.33
2023-05-26T06:00:00.581Z,63.84
2023-05-26T06:02:27.151Z,63.24
2023-05-26T06:04:53.838Z,61.55
2023-05-26T06:07:20.272Z,61.11
2023-05-26T06:09:46.742Z,60.01
2023-05-26T06:12:14.783Z,58.84
2023-05-26T06:14:42.724Z,57.65
2023-05-26T06:17:09.223Z,56.71
2023-05-26T06:19:35.722Z,55.00
2023-05-26T06:22:02.294Z,54.24
2023-05-26T06:24:28.808Z,52.85
2023-05-26T06:26:55.323Z,51.73
2023-05-26T06:29:21.768Z,51.82
2023-05-26T06:31:48.373Z,51.13
2023-05-26T06:34:14.994Z,49.37
2023-05-26T06:36:41.547Z,49.46
2023-05-26T06:39:08.172Z,50.03
2023-05-26T06:41:34.664Z,49.84
2023-05-26T06:44:01.390Z,49.66
2023-05-26T06:46:27.969Z,49.47
2023-05-26T06:48:57.488Z,49.48
2023-05-26T06:51:23.982Z,49.33
2023-05-26T06:53:50.738Z,48.99
2023-05-26T06:56:17.354Z,49.25
2023-05-26T06:58:43.883Z,49.58
2023-05-26T07:01:10.451Z,49.09
2023-05-26T07:03:37.116Z,49.31
2023-05-26T07:06:04.199Z,49.96
2023-05-26T07:08:31.043Z,50.02
2023-05-26T07:10:57.483Z,49.68
2023-05-26T07:13:23.988Z,49.02
2023-05-26T07:15:53.428Z,47.56
2023-05-26T07:18:19.930Z,46.50
2023-05-26T07:20:49.047Z,45.94
2023-05-26T07:23:16.096Z,45.04
2023-05-26T07:25:42.595Z,44.13
2023-05-26T07:28:09.155Z,43.41
2023-05-26T07:30:35.649Z,43.43
2023-05-26T07:33:04.287Z,43.07
2023-05-26T07:35:30.844Z,43.56
2023-05-26T07:37:57.932Z,43.43
2023-05-26T07:40:24.381Z,43.37
2023-05-26T07:42:51.178Z,43.64
2023-05-26T07:45:17.818Z,42.84
2023-05-26T07:47:44.353Z,42.65
2023-05-26T07:50:11.410Z,42.17
2023-05-26T07:52:37.978Z,42.51
2023-05-26T07:55:04.684Z,42.78
2023-05-26T07:57:31.156Z,42.46
2023-05-26T07:59:58.147Z,41.63
2023-05-26T08:02:24.982Z,41.36
2023-05-26T08:04:51.655Z,41.19
2023-05-26T08:07:19.419Z,40.00
2023-05-26T08:09:46.667Z,40.43
2023-05-26T08:12:13.262Z,40.42
2023-05-26T08:14:39.897Z,40.70
2023-05-26T08:17:06.630Z,40.34
2023-05-26T08:19:34.977Z,40.11
2023-05-26T08:22:01.493Z,39.26
2023-05-26T08:24:27.994Z,39.24
2023-05-26T08:26:54.895Z,39.01
2023-05-26T08:29:21.891Z,38.64
2023-05-26T08:31:48.490Z,37.80
2023-05-26T08:34:15.045Z,37.50
2023-05-26T08:36:41.479Z,37.31
2023-05-26T08:39:07.978Z,37.33
2023-05-26T08:41:48.230Z,36.62
2023-05-26T08:44:16.808Z,36.74
2023-05-26T08:46:45.460Z,36.38
2023-05-26T08:49:18.305Z,35.96
2023-05-26T08:51:56.399Z,35.89
2023-05-26T08:54:23.104Z,35.35
2023-05-26T08:56:50.668Z,34.96
2023-05-26T08:59:18.293Z,34.61
2023-05-26T09:01:44.918Z,34.51
2023-05-26T09:04:11.575Z,34.42
2023-05-26T09:06:47.174Z,34.54
2023-05-26T09:09:18.266Z,34.14
2023-05-26T09:11:56.091Z,33.94
2023-05-26T09:14:23.610Z,34.30
2023-05-26T09:16:50.259Z,33.54
2023-05-26T09:19:18.254Z,33.55
2023-05-26T09:21:48.262Z,33.63
2023-05-26T09:24:19.837Z,33.56
2023-05-26T09:26:49.039Z,33.21
2023-05-26T09:29:17.017Z,32.84
2023-05-26T09:31:48.870Z,32.33
2023-05-26T09:34:18.322Z,32.24
2023-05-26T09:36:44.810Z,32.66
2023-05-26T09:39:13.707Z,32.45
2023-05-26T09:41:45.524Z,32.04
2023-05-26T09:44:17.000Z,31.77
2023-05-26T09:46:44.558Z,32.31
2023-05-26T09:49:16.363Z,32.73
2023-05-26T09:51:46.763Z,32.52
2023-05-26T09:54:18.543Z,32.18
2023-05-26T09:56:51.283Z,32.94
2023-05-26T09:59:19.935Z,32.75
2023-05-26T10:01:47.263Z,32.81
2023-05-26T10:04:15.752Z,32.37
2023-05-26T10:06:42.504Z,32.03
2023-05-26T10:09:10.903Z,31.95
2023-05-26T10:11:42.379Z,31.51
2023-05-26T10:14:08.867Z,31.39
2023-05-26T10:16:36.711Z,31.43
2023-05-26T10:19:03.871Z,30.42
2023-05-26T10:21:38.797Z,30.20
2023-05-26T10:24:33.468Z,29.85
2023-05-26T10:27:07.082Z,29.87
2023-05-26T10:29:47.991Z,30.09
2023-05-26T10:32:46.822Z,30.75
2023-05-26T10:35:33.376Z,30.29
2023-05-26T10:38:02.863Z,30.22
2023-05-26T10:40:35.415Z,30.42
2023-05-26T10:43:12.509Z,30.16
2023-05-26T10:46:04.929Z,29.90
2023-05-26T10:48:55.318Z,29.16
2023-05-26T10:51:29.303Z,29.65
2023-05-26T10:53:57.737Z,29.21
2023-05-26T10:56:42.225Z,29.05
2023-05-26T10:59:08.862Z,28.91
2023-05-26T11:01:36.502Z,28.22
2023-05-26T11:04:06.883Z,28.88
2023-05-26T11:06:41.716Z,28.10
2023-05-26T11:09:09.597Z,28.28
2023-05-26T11:11:40.176Z,28.49
2023-05-26T11:14:11.114Z,28.11
2023-05-26T11:16:39.695Z,27.35
2023-05-26T11:19:08.161Z,27.42
2023-05-26T11:21:36.890Z,27.14
2023-05-26T11:24:04.957Z,27.36
2023-05-26T11:26:34.467Z,26.76
2023-05-26T11:29:04.269Z,27.59
2023-05-26T11:31:31.278Z,27.47
2023-05-26T11:34:01.210Z,26.89
2023-05-26T11:36:30.801Z,27.44
2023-05-26T11:39:02.387Z,27.42
2023-05-26T11:41:30.802Z,27.04
2023-05-26T11:44:01.092Z,27.03
2023-05-26T11:46:29.846Z,27.22
2023-05-26T11:48:56.411Z,26.72
2023-05-26T11:51:23.537Z,26.95
2023-05-26T11:53:58.471Z,26.46
2023-05-26T11:56:38.967Z,26.01
2023-05-26T11:59:17.642Z,26.42
2023-05-26T12:01:44.437Z,26.07
2023-05-26T12:04:11.135Z,26.02
2023-05-26T12:06:42.680Z,25.28
2023-05-26T12:09:28.041Z,25.32
2023-05-26T12:11:54.825Z,25.06
2023-05-26T12:14:23.938Z,24.99
2023-05-26T12:16:56.441Z,25.14
2023-05-26T12:19:23.724Z,25.42
2023-05-26T12:21:53.243Z,25.51
2023-05-26T12:24:30.909Z,25.91
2023-05-26T12:26:57.403Z,25.64
2023-05-26T12:29:23.947Z,25.86
2023-05-26T12:31:52.837Z,25.51
2023-05-26T12:34:24.285Z,25.00
2023-05-26T12:36:51.492Z,25.33
2023-05-26T12:39:19.466Z,25.61
2023-05-26T12:41:48.671Z,25.64
2023-05-26T12:44:16.488Z,25.38
2023-05-26T12:46:45.661Z,25.26
2023-05-26T12:49:12.748Z,25.43
2023-05-26T12:51:41.585Z,25.26
2023-05-26T12:54:09.781Z,25.36
2023-05-26T12:56:37.827Z,25.57
2023-05-26T12:59:17.586Z,25.57
2023-05-26T13:01:45.696Z,25.40
2023-05-26T13:04:12.473Z,25.25
2023-05-26T13:06:39.015Z,25.31
2023-05-26T13:09:05.878Z,25.31
2023-05-26T13:11:35.582Z,25.68
2023-05-26T13:14:02.108Z,25.74
2023-05-26T13:16:28.673Z,25.05
2023-05-26T13:18:55.286Z,24.91
2023-05-26T13:21:21.851Z,24.39
2023-05-26T13:23:52.219Z,24.44
2023-05-26T13:26:18.955Z,24.79
2023-05-26T13:28:45.471Z,24.81
2023-05-26T13:31:12.004Z,25.06
2023-05-26T13:33:38.450Z,25.61
2023-05-26T13:36:05.058Z,26.20
2023-05-26T13:38:31.500Z,25.02
2023-05-26T13:41:01.587Z,25.26
2023-05-26T13:43:28.190Z,25.05
2023-05-26T13:45:57.694Z,25.10
2023-05-26T13:48:25.163Z,24.98
2023-05-26T13:50:52.367Z,25.22
2023-05-26T13:53:19.397Z,26.65
2023-05-26T13:55:47.352Z,27.42
2023-05-26T13:58:14.815Z,27.86
2023-05-26T14:00:41.611Z,28.04
2023-05-26T14:03:08.486Z,28.47
2023-05-26T14:05:35.432Z,29.00
2023-05-26T14:08:09.777Z,29.20
2023-05-26T14:10:37.296Z,29.27
2023-05-26T14:13:03.855Z,29.65
2023-05-26T14:15:33.129Z,29.78
2023-05-26T14:18:07.979Z,29.82
2023-05-26T14:22:00.504Z,30.02
2023-05-26T14:23:23.716Z,30.31
2023-05-26T14:25:53.831Z,30.21
2023-05-26T14:28:20.395Z,30.29
2023-05-26T14:30:49.265Z,30.16
2023-05-26T14:33:16.096Z,30.11
2023-05-26T14:35:42.729Z,30.54
2023-05-26T14:38:09.256Z,30.79
2023-05-26T14:40:37.574Z,30.72
2023-05-26T14:43:04.611Z,31.15
2023-05-26T14:45:31.885Z,31.02
2023-05-26T14:47:58.572Z,31.21
2023-05-26T14:50:25.145Z,30.81
2023-05-26T14:52:51.585Z,30.53
2023-05-26T14:55:18.644Z,30.92
2023-05-26T14:57:45.549Z,31.16
2023-05-26T15:00:12.996Z,31.44
2023-05-26T15:02:40.068Z,31.81
2023-05-26T15:05:07.311Z,31.48
2023-05-26T15:07:33.739Z,31.79
2023-05-26T15:10:00.190Z,32.14
2023-05-26T15:12:27.677Z,32.65
2023-05-26T15:14:54.145Z,33.43
2023-05-26T15:17:20.657Z,33.87
2023-05-26T15:19:47.200Z,34.14
2023-05-26T15:22:13.688Z,34.21
2023-05-26T15:24:41.215Z,34.57
2023-05-26T15:27:07.804Z,34.60
2023-05-26T15:29:34.331Z,35.41
2023-05-26T15:32:00.911Z,35.27
2023-05-26T15:34:27.415Z,35.29
2023-05-26T15:36:54.410Z,35.34
2023-05-26T15:39:21.329Z,35.54
2023-05-26T15:41:49.725Z,35.63
2023-05-26T15:44:17.593Z,35.66
2023-05-26T15:46:46.604Z,35.51
2023-05-26T15:49:13.423Z,35.54
2023-05-26T15:51:40.050Z,35.69
2023-05-26T15:54:06.718Z,36.08
2023-05-26T15:56:34.213Z,35.80
2023-05-26T15:59:00.765Z,36.00
2023-05-26T16:01:27.282Z,35.99
2023-05-26T16:03:53.895Z,36.58
2023-05-26T16:06:20.832Z,36.61
2023-05-26T16:08:47.868Z,36.66
2023-05-26T16:11:15.874Z,36.93
2023-05-26T16:13:43.006Z,37.04
2023-05-26T16:16:10.509Z,36.97
2023-05-26T16:18:37.310Z,37.37
2023-05-26T16:21:04.780Z,37.66
2023-05-26T16:23:31.408Z,37.93
2023-05-26T16:26:02.590Z,38.03
2023-05-26T16:28:29.198Z,38.72
2023-05-26T16:30:56.414Z,38.70
2023-05-26T16:33:23.275Z,38.35
2023-05-26T16:35:54.245Z,38.39
2023-05-26T16:38:22.189Z,38.34
2023-05-26T16:40:49.554Z,38.42
2023-05-26T16:43:23.645Z,38.35
2023-05-26T16:45:58.762Z,38.48
2023-05-26T16:48:25.474Z,38.31
2023-05-26T16:50:53.141Z,38.62
2023-05-26T16:53:19.657Z,38.85
2023-05-26T16:55:46.325Z,38.48
2023-05-26T16:58:12.809Z,38.48
2023-05-26T17:00:39.267Z,38.43
2023-05-26T17:03:05.949Z,38.72
2023-05-26T17:05:32.514Z,38.93
2023-05-26T17:08:01.393Z,39.31
2023-05-26T17:10:28.357Z,39.19
2023-05-26T17:12:56.065Z,39.48
2023-05-26T17:15:22.623Z,39.70
2023-05-26T17:17:49.243Z,39.59
2023-05-26T17:20:15.880Z,39.80
2023-05-26T17:22:42.419Z,39.93
2023-05-26T17:25:12.251Z,40.29
2023-05-26T17:27:38.697Z,40.37
2023-05-26T17:30:06.519Z,40.84
2023-05-26T17:32:33.004Z,40.89
2023-05-26T17:35:00.484Z,40.81
2023-05-26T17:37:27.117Z,41.18
2023-05-26T17:39:53.648Z,41.47
2023-05-26T17:42:20.174Z,41.61
2023-05-26T17:44:46.792Z,41.50
2023-05-26T17:47:13.223Z,41.62
2023-05-26T17:49:39.794Z,41.49
2023-05-26T17:52:06.934Z,41.91
2023-05-26T17:54:34.388Z,41.61
2023-05-26T17:57:02.363Z,41.85
2023-05-26T17:59:30.895Z,41.82
2023-05-26T18:01:57.400Z,41.95
2023-05-26T18:04:23.979Z,42.22
2023-05-26T18:06:50.462Z,41.74
2023-05-26T18:09:17.292Z,41.37
2023-05-26T18:11:44.827Z,40.38
2023-05-26T18:14:11.508Z,40.34
2023-05-26T18:16:38.627Z,40.53
2023-05-26T18:19:05.161Z,41.04
2023-05-26T18:21:32.219Z,41.20
2023-05-26T18:23:58.618Z,41.68
2023-05-26T18:26:26.409Z,42.11
2023-05-26T18:28:52.967Z,42.22
2023-05-26T18:31:19.460Z,42.32
2023-05-26T18:33:45.970Z,42.37
2023-05-26T18:36:12.553Z,42.50
2023-05-26T18:38:40.866Z,42.42
2023-05-26T18:41:07.387Z,42.41
2023-05-26T18:43:34.541Z,42.17
2023-05-26T18:46:01.269Z,42.17
2023-05-26T18:48:28.123Z,41.69
2023-05-26T18:50:54.753Z,42.05
2023-05-26T18:53:21.340Z,42.21
2023-05-26T18:55:47.857Z,42.30
2023-05-26T18:58:14.402Z,42.79
2023-05-26T19:00:41.030Z,43.01
2023-05-26T19:03:07.691Z,43.26
2023-05-26T19:05:34.290Z,43.60
2023-05-26T19:08:00.762Z,43.75
2023-05-26T19:10:27.420Z,43.94
2023-05-26T19:12:53.991Z,44.28
2023-05-26T19:15:20.612Z,44.26
2023-05-26T19:17:47.139Z,44.20
2023-05-26T19:20:13.788Z,44.69
2023-05-26T19:22:41.424Z,44.64
2023-05-26T19:25:08.439Z,45.04
2023-05-26T19:27:34.965Z,45.43
2023-05-26T19:30:01.446Z,45.62
2023-05-26T19:32:27.905Z,45.66
2023-05-26T19:34:54.428Z,45.66
2023-05-26T19:37:22.099Z,45.87
2023-05-26T19:39:48.573Z,46.04
2023-05-26T19:42:15.070Z,46.34
2023-05-26T19:44:41.992Z,46.37
2023-05-26T19:47:08.620Z,46.55
2023-05-26T19:49:35.080Z,47.24
2023-05-26T19:52:01.765Z,47.18
2023-05-26T19:54:28.392Z,47.44
2023-05-26T19:56:54.932Z,47.35
2023-05-26T19:59:21.593Z,47.65
2023-05-26T20:01:48.059Z,47.80
2023-05-26T20:04:16.137Z,47.87
2023-05-26T20:06:44.008Z,47.96
2023-05-26T20:09:10.857Z,48.24
2023-05-26T20:11:37.353Z,48.27
2023-05-26T20:14:06.980Z,48.44
2023-05-26T20:16:36.935Z,48.64
2023-05-26T20:19:03.581Z,48.73
2023-05-26T20:21:30.067Z,48.70
2023-05-26T20:23:56.532Z,48.95
2023-05-26T20:26:22.993Z,49.32
2023-05-26T20:28:49.520Z,49.45
2023-05-26T20:31:18.446Z,49.58
2023-05-26T20:33:46.522Z,49.39
2023-05-26T20:36:14.135Z,49.72
2023-05-26T20:38:41.700Z,49.83
2023-05-26T20:41:08.777Z,49.98
2023-05-26T20:43:35.453Z,49.90
2023-05-26T20:46:02.180Z,50.21
2023-05-26T20:48:28.726Z,50.42
2023-05-26T20:50:55.176Z,50.47
2023-05-26T20:53:21.842Z,50.24
2023-05-26T20:55:48.359Z,50.29
2023-05-26T20:58:14.946Z,50.47
2023-05-26T21:00:41.467Z,50.44
2023-05-26T21:03:08.062Z,50.39
2023-05-26T21:05:34.653Z,50.59
2023-05-26T21:08:01.284Z,50.91
2023-05-26T21:10:27.868Z,50.85
2023-05-26T21:12:54.493Z,51.02
2023-05-26T21:15:21.252Z,51.25
2023-05-26T21:17:47.801Z,51.24
2023-05-26T21:20:14.477Z,51.60
2023-05-26T21:22:40.979Z,51.46
2023-05-26T21:25:08.697Z,51.88
2023-05-26T21:27:35.406Z,52.04
2023-05-26T21:30:02.020Z,52.22
2023-05-26T21:32:31.049Z,52.56
2023-05-26T21:34:57.671Z,52.84
2023-05-26T21:37:24.207Z,52.59
2023-05-26T21:39:50.723Z,52.86
2023-05-26T21:42:17.250Z,52.98
2023-05-26T21:44:43.751Z,53.25
2023-05-26T21:47:10.317Z,53.30
2023-05-26T21:49:37.045Z,53.54
2023-05-26T21:52:03.742Z,53.58
2023-05-26T21:54:30.258Z,53.71
2023-05-26T21:56:56.684Z,54.13
2023-05-26T21:59:23.181Z,54.33
2023-05-26T22:01:49.906Z,54.80
2023-05-26T22:04:16.542Z,54.70
2023-05-26T22:06:43.075Z,54.79
2023-05-26T22:09:09.618Z,55.20
2023-05-26T22:11:39.158Z,55.15
2023-05-26T22:14:21.270Z,55.34
2023-05-26T22:16:51.652Z,55.48
2023-05-26T22:19:18.661Z,55.60
2023-05-26T22:21:45.311Z,55.58
2023-05-26T22:24:11.754Z,55.84
2023-05-26T22:26:38.220Z,55.87
2023-05-26T22:29:04.681Z,55.93
2023-05-26T22:31:31.246Z,56.00
2023-05-26T22:33:57.764Z,56.14
2023-05-26T22:36:24.255Z,56.67
2023-05-26T22:38:50.777Z,56.43
2023-05-26T22:41:17.347Z,56.39
2023-05-26T22:43:43.819Z,56.79
2023-05-26T22:46:10.486Z,56.66
2023-05-26T22:48:36.938Z,56.81
2023-05-26T22:51:04.420Z,57.01
2023-05-26T22:53:31.206Z,57.10
2023-05-26T22:56:04.957Z,57.27
2023-05-26T22:58:39.581Z,57.17
2023-05-26T23:01:06.395Z,57.32
2023-05-26T23:03:33.112Z,57.40
2023-05-26T23:05:59.997Z,57.60
2023-05-26T23:08:27.794Z,57.45
2023-05-26T23:10:54.391Z,57.88
2023-05-26T23:13:21.666Z,57.87
2023-05-26T23:15:48.145Z,57.54
2023-05-26T23:18:14.617Z,57.45
2023-05-26T23:20:41.099Z,57.57
2023-05-26T23:23:07.574Z,57.69
2023-05-26T23:25:34.415Z,57.47
2023-05-26T23:28:00.869Z,57.65
2023-05-26T23:30:27.803Z,57.63
2023-05-26T23:32:54.400Z,57.43
2023-05-26T23:35:20.965Z,57.99
2023-05-26T23:37:47.502Z,57.49
2023-05-26T23:40:14.004Z,57.90
2023-05-26T23:42:40.737Z,58.14
2023-05-26T23:45:08.020Z,58.06
2023-05-26T23:47:34.599Z,58.48
2023-05-26T23:50:01.885Z,58.65
2023-05-26T23:52:31.092Z,58.89
2023-05-26T23:54:57.515Z,59.00
2023-05-26T23:57:23.900Z,59.05
2023-05-26T23:59:50.678Z,59.59
